sensor_id;sensor_type;location;lat;lon;timestamp;P1;durP1;ratioP1;P2;durP2;ratioP2
29686;SDS011;16599;47.078;15.536;2023-01-15T00:01:56;8.90;;;4.90;;
29686;SDS011;16599;47.078;15.536;2023-01-15T00:04:23;14.48;;;6.43;;
29686;SDS011;16599;47.078;15.536;2023-01-15T00:06:50;10.70;;;5.57;;
29686;SDS011;16599;47.078;15.536;2023-01-15T00:09:17;15.25;;;7.05;;
29686;SDS011;16599;47.078;15.536;2023-01-15T00:11:43;11.57;;;5.47;;
29686;SDS011;16599;47.078;15.536;2023-01-15T00:14:10;13.82;;;6.30;;
29686;SDS011;16599;47.078;15.536;2023-01-15T00:16:37;13.75;;;6.57;;
29686;SDS011;16599;47.078;15.536;2023-01-15T00:19:05;19.20;;;7.80;;
29686;SDS011;16599;47.078;15.536;2023-01-15T00:21:36;12.73;;;5.30;;
29686;SDS011;16599;47.078;15.536;2023-01-15T00:24:03;10.88;;;5.05;;
29686;SDS011;16599;47.078;15.536;2023-01-15T00:26:48;8.73;;;4.80;;
29686;SDS011;16599;47.078;15.536;2023-01-15T00:29:34;10.48;;;5.22;;
29686;SDS011;16599;47.078;15.536;2023-01-15T00:32:02;10.52;;;5.72;;
29686;SDS011;16599;47.078;15.536;2023-01-15T00:34:33;11.20;;;5.35;;
29686;SDS011;16599;47.078;15.536;2023-01-15T00:37:00;12.88;;;5.53;;
29686;SDS011;16599;47.078;15.536;2023-01-15T00:39:28;14.32;;;5.03;;
29686;SDS011;16599;47.078;15.536;2023-01-15T00:41:55;11.43;;;5.20;;
29686;SDS011;16599;47.078;15.536;2023-01-15T00:44:22;8.75;;;5.22;;
29686;SDS011;16599;47.078;15.536;2023-01-15T00:46:49;13.88;;;5.88;;
29686;SDS011;16599;47.078;15.536;2023-01-15T00:49:16;10.57;;;5.32;;
29686;SDS011;16599;47.078;15.536;2023-01-15T00:51:43;12.20;;;5.07;;
29686;SDS011;16599;47.078;15.536;2023-01-15T00:54:10;10.70;;;5.50;;
29686;SDS011;16599;47.078;15.536;2023-01-15T00:56:36;12.05;;;5.40;;
29686;SDS011;16599;47.078;15.536;2023-01-15T00:59:04;10.43;;;5.13;;
29686;SDS011;16599;47.078;15.536;2023-01-15T01:01:31;13.20;;;5.68;;
29686;SDS011;16599;47.078;15.536;2023-01-15T01:03:58;9.27;;;4.93;;
29686;SDS011;16599;47.078;15.536;2023-01-15T01:06:25;12.13;;;4.97;;
29686;SDS011;16599;47.078;15.536;2023-01-15T01:08:52;14.38;;;5.30;;
29686;SDS011;16599;47.078;15.536;2023-01-15T01:11:20;12.00;;;5.97;;
29686;SDS011;16599;47.078;15.536;2023-01-15T01:13:52;12.10;;;5.47;;
29686;SDS011;16599;47.078;15.536;2023-01-15T01:16:25;10.35;;;5.10;;
29686;SDS011;16599;47.078;15.536;2023-01-15T01:18:57;11.60;;;5.57;;
29686;SDS011;16599;47.078;15.536;2023-01-15T01:21:26;11.63;;;5.10;;
29686;SDS011;16599;47.078;15.536;2023-01-15T01:23:53;8.73;;;4.95;;
29686;SDS011;16599;47.078;15.536;2023-01-15T01:26:20;10.02;;;5.22;;
29686;SDS011;16599;47.078;15.536;2023-01-15T01:28:48;12.15;;;5.43;;
29686;SDS011;16599;47.078;15.536;2023-01-15T01:31:16;10.55;;;5.13;;
29686;SDS011;16599;47.078;15.536;2023-01-15T01:33:43;12.15;;;4.75;;
29686;SDS011;16599;47.078;15.536;2023-01-15T01:36:10;9.68;;;5.05;;
29686;SDS011;16599;47.078;15.536;2023-01-15T01:38:37;8.98;;;4.80;;
29686;SDS011;16599;47.078;15.536;2023-01-15T01:41:04;10.80;;;5.22;;
29686;SDS011;16599;47.078;15.536;2023-01-15T01:43:49;7.57;;;4.63;;
29686;SDS011;16599;47.078;15.536;2023-01-15T01:46:20;10.63;;;4.93;;
29686;SDS011;16599;47.078;15.536;2023-01-15T01:48:47;11.85;;;5.00;;
29686;SDS011;16599;47.078;15.536;2023-01-15T01:51:17;12.90;;;5.53;;
29686;SDS011;16599;47.078;15.536;2023-01-15T01:53:46;8.27;;;4.53;;
29686;SDS011;16599;47.078;15.536;2023-01-15T01:56:13;8.90;;;4.65;;
29686;SDS011;16599;47.078;15.536;2023-01-15T01:58:43;9.13;;;4.75;;
29686;SDS011;16599;47.078;15.536;2023-01-15T02:01:13;11.15;;;5.15;;
29686;SDS011;16599;47.078;15.536;2023-01-15T02:03:40;11.48;;;5.30;;
29686;SDS011;16599;47.078;15.536;2023-01-15T02:06:08;10.80;;;5.40;;
29686;SDS011;16599;47.078;15.536;2023-01-15T02:08:36;13.27;;;5.97;;
29686;SDS011;16599;47.078;15.536;2023-01-15T02:11:05;15.95;;;5.38;;
29686;SDS011;16599;47.078;15.536;2023-01-15T02:13:38;11.75;;;5.82;;
29686;SDS011;16599;47.078;15.536;2023-01-15T02:22:01;13.13;;;4.78;;
29686;SDS011;16599;47.078;15.536;2023-01-15T02:24:51;11.02;;;5.45;;
29686;SDS011;16599;47.078;15.536;2023-01-15T02:27:29;8.32;;;5.05;;
29686;SDS011;16599;47.078;15.536;2023-01-15T02:30:10;10.57;;;4.90;;
29686;SDS011;16599;47.078;15.536;2023-01-15T02:37:50;9.73;;;5.07;;
29686;SDS011;16599;47.078;15.536;2023-01-15T02:40:20;10.80;;;5.05;;
29686;SDS011;16599;47.078;15.536;2023-01-15T02:42:48;11.93;;;5.05;;
29686;SDS011;16599;47.078;15.536;2023-01-15T02:45:26;12.43;;;4.72;;
29686;SDS011;16599;47.078;15.536;2023-01-15T02:47:57;9.90;;;5.00;;
29686;SDS011;16599;47.078;15.536;2023-01-15T02:50:30;11.30;;;5.85;;
29686;SDS011;16599;47.078;15.536;2023-01-15T02:53:04;11.13;;;4.78;;
29686;SDS011;16599;47.078;15.536;2023-01-15T02:55:36;9.70;;;5.35;;
29686;SDS011;16599;47.078;15.536;2023-01-15T02:58:09;9.13;;;5.20;;
29686;SDS011;16599;47.078;15.536;2023-01-15T03:00:40;9.95;;;5.30;;
29686;SDS011;16599;47.078;15.536;2023-01-15T03:08:49;8.35;;;5.07;;
29686;SDS011;16599;47.078;15.536;2023-01-15T03:11:17;9.85;;;5.15;;
29686;SDS011;16599;47.078;15.536;2023-01-15T03:13:47;11.43;;;4.97;;
29686;SDS011;16599;47.078;15.536;2023-01-15T03:19:02;8.73;;;4.95;;
29686;SDS011;16599;47.078;15.536;2023-01-15T03:24:14;12.77;;;4.60;;
29686;SDS011;16599;47.078;15.536;2023-01-15T03:26:52;9.73;;;4.63;;
29686;SDS011;16599;47.078;15.536;2023-01-15T03:29:19;11.88;;;4.95;;
29686;SDS011;16599;47.078;15.536;2023-01-15T03:31:48;13.60;;;5.45;;
29686;SDS011;16599;47.078;15.536;2023-01-15T03:34:15;7.90;;;4.43;;
29686;SDS011;16599;47.078;15.536;2023-01-15T03:36:42;9.77;;;4.80;;
29686;SDS011;16599;47.078;15.536;2023-01-15T03:39:09;9.73;;;4.93;;
29686;SDS011;16599;47.078;15.536;2023-01-15T03:44:26;14.70;;;5.22;;
29686;SDS011;16599;47.078;15.536;2023-01-15T03:47:13;10.98;;;4.65;;
29686;SDS011;16599;47.078;15.536;2023-01-15T03:52:44;10.25;;;5.22;;
29686;SDS011;16599;47.078;15.536;2023-01-15T03:55:24;10.90;;;4.90;;
29686;SDS011;16599;47.078;15.536;2023-01-15T03:58:09;8.65;;;4.82;;
29686;SDS011;16599;47.078;15.536;2023-01-15T04:00:43;7.55;;;4.30;;
29686;SDS011;16599;47.078;15.536;2023-01-15T04:03:17;11.60;;;4.97;;
29686;SDS011;16599;47.078;15.536;2023-01-15T04:05:46;9.32;;;5.20;;
29686;SDS011;16599;47.078;15.536;2023-01-15T04:08:15;10.35;;;4.93;;
29686;SDS011;16599;47.078;15.536;2023-01-15T04:10:49;13.35;;;4.85;;
29686;SDS011;16599;47.078;15.536;2023-01-15T04:13:18;11.30;;;4.75;;
29686;SDS011;16599;47.078;15.536;2023-01-15T04:15:45;9.98;;;4.75;;
29686;SDS011;16599;47.078;15.536;2023-01-15T04:18:12;8.40;;;5.10;;
29686;SDS011;16599;47.078;15.536;2023-01-15T04:20:39;13.40;;;5.25;;
29686;SDS011;16599;47.078;15.536;2023-01-15T04:23:06;8.50;;;4.60;;
29686;SDS011;16599;47.078;15.536;2023-01-15T04:25:33;10.93;;;5.38;;
29686;SDS011;16599;47.078;15.536;2023-01-15T04:27:59;11.15;;;4.72;;
29686;SDS011;16599;47.078;15.536;2023-01-15T04:30:26;6.30;;;4.10;;
29686;SDS011;16599;47.078;15.536;2023-01-15T04:32:53;10.57;;;5.18;;
29686;SDS011;16599;47.078;15.536;2023-01-15T04:35:20;7.28;;;4.60;;
29686;SDS011;16599;47.078;15.536;2023-01-15T04:37:48;10.00;;;4.93;;
29686;SDS011;16599;47.078;15.536;2023-01-15T04:40:15;8.07;;;4.47;;
29686;SDS011;16599;47.078;15.536;2023-01-15T04:43:00;10.07;;;4.85;;
29686;SDS011;16599;47.078;15.536;2023-01-15T04:45:53;8.07;;;4.75;;
29686;SDS011;16599;47.078;15.536;2023-01-15T04:48:20;14.95;;;5.22;;
29686;SDS011;16599;47.078;15.536;2023-01-15T04:50:46;10.95;;;5.30;;
29686;SDS011;16599;47.078;15.536;2023-01-15T04:53:13;11.30;;;4.70;;
29686;SDS011;16599;47.078;15.536;2023-01-15T04:55:40;8.40;;;4.53;;
29686;SDS011;16599;47.078;15.536;2023-01-15T04:58:07;11.65;;;4.70;;
29686;SDS011;16599;47.078;15.536;2023-01-15T05:00:34;8.60;;;5.10;;
29686;SDS011;16599;47.078;15.536;2023-01-15T05:03:01;7.78;;;4.53;;
29686;SDS011;16599;47.078;15.536;2023-01-15T05:05:27;12.77;;;5.05;;
29686;SDS011;16599;47.078;15.536;2023-01-15T05:07:54;9.65;;;5.03;;
29686;SDS011;16599;47.078;15.536;2023-01-15T05:10:21;11.63;;;5.20;;
29686;SDS011;16599;47.078;15.536;2023-01-15T05:12:48;9.30;;;4.88;;
29686;SDS011;16599;47.078;15.536;2023-01-15T05:15:14;9.75;;;5.35;;
29686;SDS011;16599;47.078;15.536;2023-01-15T05:17:41;8.27;;;4.60;;
29686;SDS011;16599;47.078;15.536;2023-01-15T05:20:08;9.43;;;5.85;;
29686;SDS011;16599;47.078;15.536;2023-01-15T05:22:35;8.20;;;4.72;;
29686;SDS011;16599;47.078;15.536;2023-01-15T05:25:02;14.30;;;4.93;;
29686;SDS011;16599;47.078;15.536;2023-01-15T05:27:30;10.02;;;4.82;;
29686;SDS011;16599;47.078;15.536;2023-01-15T05:29:56;10.55;;;4.90;;
29686;SDS011;16599;47.078;15.536;2023-01-15T05:32:23;7.10;;;4.45;;
29686;SDS011;16599;47.078;15.536;2023-01-15T05:34:50;9.88;;;4.90;;
29686;SDS011;16599;47.078;15.536;2023-01-15T05:37:17;8.75;;;4.80;;
29686;SDS011;16599;47.078;15.536;2023-01-15T05:39:44;9.07;;;5.00;;
29686;SDS011;16599;47.078;15.536;2023-01-15T05:42:10;11.55;;;4.85;;
29686;SDS011;16599;47.078;15.536;2023-01-15T05:44:37;11.48;;;4.57;;
29686;SDS011;16599;47.078;15.536;2023-01-15T05:47:04;12.20;;;5.10;;
29686;SDS011;16599;47.078;15.536;2023-01-15T05:49:33;8.07;;;4.18;;
29686;SDS011;16599;47.078;15.536;2023-01-15T05:52:00;13.95;;;4.88;;
29686;SDS011;16599;47.078;15.536;2023-01-15T05:54:30;9.95;;;4.47;;
29686;SDS011;16599;47.078;15.536;2023-01-15T05:56:59;11.00;;;4.88;;
29686;SDS011;16599;47.078;15.536;2023-01-15T05:59:27;10.63;;;4.72;;
29686;SDS011;16599;47.078;15.536;2023-01-15T06:01:55;10.25;;;5.53;;
29686;SDS011;16599;47.078;15.536;2023-01-15T06:04:23;7.93;;;4.72;;
29686;SDS011;16599;47.078;15.536;2023-01-15T06:06:51;11.60;;;5.97;;
29686;SDS011;16599;47.078;15.536;2023-01-15T06:09:19;13.23;;;5.07;;
29686;SDS011;16599;47.078;15.536;2023-01-15T06:11:48;9.25;;;4.30;;
29686;SDS011;16599;47.078;15.536;2023-01-15T06:14:15;10.52;;;5.10;;
29686;SDS011;16599;47.078;15.536;2023-01-15T06:16:42;12.32;;;5.80;;
29686;SDS011;16599;47.078;15.536;2023-01-15T06:19:10;10.27;;;4.97;;
29686;SDS011;16599;47.078;15.536;2023-01-15T06:21:38;12.75;;;4.50;;
29686;SDS011;16599;47.078;15.536;2023-01-15T06:24:06;8.35;;;4.65;;
29686;SDS011;16599;47.078;15.536;2023-01-15T06:26:34;8.27;;;4.68;;
29686;SDS011;16599;47.078;15.536;2023-01-15T06:29:01;11.48;;;5.10;;
29686;SDS011;16599;47.078;15.536;2023-01-15T06:31:27;10.20;;;4.97;;
29686;SDS011;16599;47.078;15.536;2023-01-15T06:33:54;8.50;;;5.18;;
29686;SDS011;16599;47.078;15.536;2023-01-15T06:36:22;9.00;;;4.72;;
29686;SDS011;16599;47.078;15.536;2023-01-15T06:38:50;8.15;;;4.78;;
29686;SDS011;16599;47.078;15.536;2023-01-15T06:41:18;8.27;;;5.03;;
29686;SDS011;16599;47.078;15.536;2023-01-15T06:44:10;10.02;;;4.60;;
29686;SDS011;16599;47.078;15.536;2023-01-15T06:47:04;8.07;;;4.43;;
29686;SDS011;16599;47.078;15.536;2023-01-15T06:49:46;10.60;;;4.80;;
29686;SDS011;16599;47.078;15.536;2023-01-15T06:52:14;9.98;;;5.40;;
29686;SDS011;16599;47.078;15.536;2023-01-15T06:54:41;12.35;;;5.20;;
29686;SDS011;16599;47.078;15.536;2023-01-15T06:57:08;9.73;;;4.75;;
29686;SDS011;16599;47.078;15.536;2023-01-15T06:59:35;18.60;;;4.90;;
29686;SDS011;16599;47.078;15.536;2023-01-15T07:02:01;14.77;;;5.68;;
29686;SDS011;16599;47.078;15.536;2023-01-15T07:04:28;14.10;;;6.90;;
29686;SDS011;16599;47.078;15.536;2023-01-15T07:06:56;10.65;;;5.80;;
29686;SDS011;16599;47.078;15.536;2023-01-15T07:09:23;13.77;;;6.20;;
29686;SDS011;16599;47.078;15.536;2023-01-15T07:11:49;13.45;;;6.45;;
29686;SDS011;16599;47.078;15.536;2023-01-15T07:14:20;12.93;;;6.55;;
29686;SDS011;16599;47.078;15.536;2023-01-15T07:16:49;14.30;;;5.95;;
29686;SDS011;16599;47.078;15.536;2023-01-15T07:19:16;14.10;;;6.15;;
29686;SDS011;16599;47.078;15.536;2023-01-15T07:21:44;13.55;;;5.75;;
29686;SDS011;16599;47.078;15.536;2023-01-15T07:24:11;16.13;;;5.45;;
29686;SDS011;16599;47.078;15.536;2023-01-15T07:26:38;13.50;;;5.90;;
29686;SDS011;16599;47.078;15.536;2023-01-15T07:29:06;10.00;;;5.72;;
29686;SDS011;16599;47.078;15.536;2023-01-15T07:31:33;15.25;;;6.28;;
29686;SDS011;16599;47.078;15.536;2023-01-15T07:34:00;14.18;;;5.97;;
29686;SDS011;16599;47.078;15.536;2023-01-15T07:36:27;9.45;;;5.10;;
29686;SDS011;16599;47.078;15.536;2023-01-15T07:38:53;10.88;;;4.78;;
29686;SDS011;16599;47.078;15.536;2023-01-15T07:41:20;9.00;;;5.18;;
29686;SDS011;16599;47.078;15.536;2023-01-15T07:44:08;11.32;;;5.40;;
29686;SDS011;16599;47.078;15.536;2023-01-15T07:46:54;9.13;;;4.70;;
29686;SDS011;16599;47.078;15.536;2023-01-15T07:49:41;9.98;;;5.15;;
29686;SDS011;16599;47.078;15.536;2023-01-15T07:52:21;10.15;;;5.15;;
29686;SDS011;16599;47.078;15.536;2023-01-15T07:54:48;9.18;;;5.15;;
29686;SDS011;16599;47.078;15.536;2023-01-15T07:57:17;10.05;;;5.55;;
29686;SDS011;16599;47.078;15.536;2023-01-15T07:59:47;9.20;;;5.23;;
29686;SDS011;16599;47.078;15.536;2023-01-15T08:02:36;10.68;;;5.00;;
29686;SDS011;16599;47.078;15.536;2023-01-15T08:05:02;10.25;;;5.10;;
29686;SDS011;16599;47.078;15.536;2023-01-15T08:07:29;11.65;;;5.43;;
29686;SDS011;16599;47.078;15.536;2023-01-15T08:10:01;9.45;;;5.05;;
29686;SDS011;16599;47.078;15.536;2023-01-15T08:12:28;11.32;;;5.45;;
29686;SDS011;16599;47.078;15.536;2023-01-15T08:15:13;10.70;;;4.93;;
29686;SDS011;16599;47.078;15.536;2023-01-15T08:17:41;9.10;;;5.00;;
29686;SDS011;16599;47.078;15.536;2023-01-15T08:20:11;8.85;;;4.63;;
29686;SDS011;16599;47.078;15.536;2023-01-15T08:22:42;13.95;;;5.25;;
29686;SDS011;16599;47.078;15.536;2023-01-15T08:25:11;9.82;;;5.13;;
29686;SDS011;16599;47.078;15.536;2023-01-15T08:27:39;9.10;;;5.50;;
29686;SDS011;16599;47.078;15.536;2023-01-15T08:30:07;27.77;;;9.93;;
29686;SDS011;16599;47.078;15.536;2023-01-15T08:32:36;12.27;;;6.65;;
29686;SDS011;16599;47.078;15.536;2023-01-15T08:35:03;9.13;;;5.45;;
29686;SDS011;16599;47.078;15.536;2023-01-15T08:37:31;13.20;;;6.90;;
29686;SDS011;16599;47.078;15.536;2023-01-15T08:39:57;10.93;;;6.27;;
29686;SDS011;16599;47.078;15.536;2023-01-15T08:42:24;10.10;;;5.95;;
29686;SDS011;16599;47.078;15.536;2023-01-15T08:44:51;12.38;;;6.45;;
29686;SDS011;16599;47.078;15.536;2023-01-15T08:47:18;11.15;;;7.00;;
29686;SDS011;16599;47.078;15.536;2023-01-15T08:49:45;13.32;;;6.70;;
29686;SDS011;16599;47.078;15.536;2023-01-15T08:52:13;10.23;;;5.70;;
29686;SDS011;16599;47.078;15.536;2023-01-15T08:54:40;12.88;;;6.93;;
29686;SDS011;16599;47.078;15.536;2023-01-15T08:57:08;9.35;;;6.75;;
29686;SDS011;16599;47.078;15.536;2023-01-15T08:59:37;11.95;;;7.32;;
29686;SDS011;16599;47.078;15.536;2023-01-15T09:02:04;12.27;;;8.00;;
29686;SDS011;16599;47.078;15.536;2023-01-15T09:04:30;11.30;;;7.25;;
29686;SDS011;16599;47.078;15.536;2023-01-15T09:06:57;11.05;;;7.30;;
29686;SDS011;16599;47.078;15.536;2023-01-15T09:09:24;11.60;;;7.32;;
29686;SDS011;16599;47.078;15.536;2023-01-15T09:11:51;11.93;;;7.45;;
29686;SDS011;16599;47.078;15.536;2023-01-15T09:14:18;11.52;;;6.35;;
29686;SDS011;16599;47.078;15.536;2023-01-15T09:17:04;13.52;;;6.80;;
29686;SDS011;16599;47.078;15.536;2023-01-15T09:19:31;8.98;;;5.85;;
29686;SDS011;16599;47.078;15.536;2023-01-15T09:21:58;8.68;;;5.53;;
29686;SDS011;16599;47.078;15.536;2023-01-15T09:24:25;10.50;;;4.65;;
29686;SDS011;16599;47.078;15.536;2023-01-15T09:26:52;6.20;;;4.10;;
29686;SDS011;16599;47.078;15.536;2023-01-15T09:29:19;7.78;;;3.90;;
29686;SDS011;16599;47.078;15.536;2023-01-15T09:31:46;8.65;;;4.50;;
29686;SDS011;16599;47.078;15.536;2023-01-15T09:34:12;10.15;;;3.85;;
29686;SDS011;16599;47.078;15.536;2023-01-15T09:36:39;7.97;;;4.28;;
29686;SDS011;16599;47.078;15.536;2023-01-15T09:39:06;11.27;;;4.53;;
29686;SDS011;16599;47.078;15.536;2023-01-15T09:47:38;7.30;;;4.45;;
29686;SDS011;16599;47.078;15.536;2023-01-15T09:53:03;9.15;;;4.00;;
29686;SDS011;16599;47.078;15.536;2023-01-15T09:55:44;8.85;;;4.70;;
29686;SDS011;16599;47.078;15.536;2023-01-15T09:58:13;9.48;;;3.72;;
29686;SDS011;16599;47.078;15.536;2023-01-15T10:00:44;8.50;;;4.00;;
29686;SDS011;16599;47.078;15.536;2023-01-15T10:08:36;10.05;;;4.15;;
29686;SDS011;16599;47.078;15.536;2023-01-15T10:11:30;8.20;;;4.03;;
29686;SDS011;16599;47.078;15.536;2023-01-15T10:14:23;11.13;;;4.72;;
29686;SDS011;16599;47.078;15.536;2023-01-15T10:16:57;7.60;;;4.35;;
29686;SDS011;16599;47.078;15.536;2023-01-15T10:19:23;8.52;;;4.07;;
29686;SDS011;16599;47.078;15.536;2023-01-15T10:22:07;14.43;;;4.53;;
29686;SDS011;16599;47.078;15.536;2023-01-15T10:24:57;12.02;;;5.82;;
29686;SDS011;16599;47.078;15.536;2023-01-15T10:27:24;8.25;;;4.80;;
29686;SDS011;16599;47.078;15.536;2023-01-15T10:30:14;8.27;;;5.30;;
29686;SDS011;16599;47.078;15.536;2023-01-15T10:33:10;9.23;;;4.65;;
29686;SDS011;16599;47.078;15.536;2023-01-15T10:36:02;11.68;;;5.25;;
29686;SDS011;16599;47.078;15.536;2023-01-15T10:38:43;11.00;;;4.65;;
29686;SDS011;16599;47.078;15.536;2023-01-15T10:43:46;9.98;;;5.00;;
29686;SDS011;16599;47.078;15.536;2023-01-15T10:46:30;7.10;;;4.25;;
29686;SDS011;16599;47.078;15.536;2023-01-15T10:49:11;11.23;;;5.28;;
29686;SDS011;16599;47.078;15.536;2023-01-15T10:54:18;8.85;;;4.82;;
29686;SDS011;16599;47.078;15.536;2023-01-15T10:57:16;10.10;;;4.78;;
29686;SDS011;16599;47.078;15.536;2023-01-15T10:59:57;9.25;;;4.95;;
29686;SDS011;16599;47.078;15.536;2023-01-15T11:02:37;8.55;;;4.68;;
29686;SDS011;16599;47.078;15.536;2023-01-15T11:05:15;10.90;;;4.97;;
29686;SDS011;16599;47.078;15.536;2023-01-15T11:07:46;10.10;;;4.85;;
29686;SDS011;16599;47.078;15.536;2023-01-15T11:10:35;8.65;;;4.35;;
29686;SDS011;16599;47.078;15.536;2023-01-15T11:13:19;11.30;;;4.45;;
29686;SDS011;16599;47.078;15.536;2023-01-15T11:16:16;8.82;;;4.28;;
29686;SDS011;16599;47.078;15.536;2023-01-15T11:19:23;10.52;;;4.63;;
29686;SDS011;16599;47.078;15.536;2023-01-15T11:22:15;10.10;;;4.93;;
29686;SDS011;16599;47.078;15.536;2023-01-15T11:27:21;9.52;;;4.53;;
29686;SDS011;16599;47.078;15.536;2023-01-15T11:29:52;8.45;;;4.57;;
29686;SDS011;16599;47.078;15.536;2023-01-15T11:32:31;12.18;;;4.68;;
29686;SDS011;16599;47.078;15.536;2023-01-15T11:37:29;9.45;;;5.00;;
29686;SDS011;16599;47.078;15.536;2023-01-15T11:39:57;10.05;;;4.78;;
29686;SDS011;16599;47.078;15.536;2023-01-15T11:42:32;10.98;;;4.60;;
29686;SDS011;16599;47.078;15.536;2023-01-15T11:45:21;12.00;;;4.75;;
29686;SDS011;16599;47.078;15.536;2023-01-15T11:53:37;7.85;;;4.30;;
29686;SDS011;16599;47.078;15.536;2023-01-15T11:56:18;6.88;;;4.28;;
29686;SDS011;16599;47.078;15.536;2023-01-15T11:58:55;6.88;;;4.40;;
29686;SDS011;16599;47.078;15.536;2023-01-15T12:01:29;10.63;;;4.65;;
29686;SDS011;16599;47.078;15.536;2023-01-15T12:07:03;11.10;;;4.68;;
29686;SDS011;16599;47.078;15.536;2023-01-15T12:09:35;9.25;;;4.05;;
29686;SDS011;16599;47.078;15.536;2023-01-15T12:27:50;11.68;;;4.00;;
29686;SDS011;16599;47.078;15.536;2023-01-15T12:35:49;8.30;;;4.63;;
29686;SDS011;16599;47.078;15.536;2023-01-15T12:43:51;6.57;;;4.18;;
29686;SDS011;16599;47.078;15.536;2023-01-15T12:46:41;9.77;;;5.05;;
29686;SDS011;16599;47.078;15.536;2023-01-15T12:54:32;9.45;;;4.70;;
29686;SDS011;16599;47.078;15.536;2023-01-15T12:57:07;11.30;;;4.82;;
29686;SDS011;16599;47.078;15.536;2023-01-15T12:59:52;11.90;;;4.53;;
29686;SDS011;16599;47.078;15.536;2023-01-15T13:02:27;8.27;;;4.32;;
29686;SDS011;16599;47.078;15.536;2023-01-15T13:05:12;11.50;;;4.20;;
29686;SDS011;16599;47.078;15.536;2023-01-15T13:07:49;9.52;;;4.72;;
29686;SDS011;16599;47.078;15.536;2023-01-15T13:10:37;11.35;;;5.32;;
29686;SDS011;16599;47.078;15.536;2023-01-15T13:15:47;12.90;;;4.78;;
29686;SDS011;16599;47.078;15.536;2023-01-15T13:18:41;7.60;;;4.70;;
29686;SDS011;16599;47.078;15.536;2023-01-15T13:21:17;9.63;;;4.65;;
29686;SDS011;16599;47.078;15.536;2023-01-15T13:23:59;11.02;;;5.25;;
29686;SDS011;16599;47.078;15.536;2023-01-15T13:32:32;10.27;;;5.00;;
29686;SDS011;16599;47.078;15.536;2023-01-15T13:35:05;9.52;;;4.93;;
29686;SDS011;16599;47.078;15.536;2023-01-15T13:37:50;13.20;;;4.85;;
29686;SDS011;16599;47.078;15.536;2023-01-15T13:40:26;11.73;;;5.35;;
29686;SDS011;16599;47.078;15.536;2023-01-15T13:43:00;14.07;;;5.28;;
29686;SDS011;16599;47.078;15.536;2023-01-15T13:45:35;12.55;;;5.63;;
29686;SDS011;16599;47.078;15.536;2023-01-15T13:50:54;14.05;;;5.57;;
29686;SDS011;16599;47.078;15.536;2023-01-15T13:56:06;12.43;;;5.38;;
29686;SDS011;16599;47.078;15.536;2023-01-15T13:58:39;9.70;;;5.07;;
29686;SDS011;16599;47.078;15.536;2023-01-15T14:01:30;8.63;;;4.97;;
29686;SDS011;16599;47.078;15.536;2023-01-15T14:04:03;12.18;;;5.32;;
29686;SDS011;16599;47.078;15.536;2023-01-15T14:06:41;22.77;;;6.15;;
29686;SDS011;16599;47.078;15.536;2023-01-15T14:09:12;16.40;;;5.55;;
29686;SDS011;16599;47.078;15.536;2023-01-15T14:19:44;10.50;;;5.50;;
29686;SDS011;16599;47.078;15.536;2023-01-15T14:28:00;14.52;;;5.95;;
29686;SDS011;16599;47.078;15.536;2023-01-15T14:31:26;13.18;;;6.65;;
29686;SDS011;16599;47.078;15.536;2023-01-15T14:33:54;21.55;;;7.38;;
29686;SDS011;16599;47.078;15.536;2023-01-15T14:36:50;18.38;;;7.57;;
29686;SDS011;16599;47.078;15.536;2023-01-15T14:39:29;14.15;;;6.55;;
29686;SDS011;16599;47.078;15.536;2023-01-15T14:42:02;14.75;;;6.82;;
29686;SDS011;16599;47.078;15.536;2023-01-15T14:45:02;15.32;;;7.13;;
29686;SDS011;16599;47.078;15.536;2023-01-15T14:47:44;13.75;;;7.10;;
29686;SDS011;16599;47.078;15.536;2023-01-15T14:53:00;19.13;;;8.18;;
29686;SDS011;16599;47.078;15.536;2023-01-15T15:01:48;18.25;;;7.50;;
29686;SDS011;16599;47.078;15.536;2023-01-15T15:03:57;18.10;;;7.78;;
29686;SDS011;16599;47.078;15.536;2023-01-15T15:06:43;15.45;;;7.47;;
29686;SDS011;16599;47.078;15.536;2023-01-15T15:09:39;13.15;;;6.95;;
29686;SDS011;16599;47.078;15.536;2023-01-15T15:12:25;15.73;;;6.18;;
29686;SDS011;16599;47.078;15.536;2023-01-15T15:20:32;16.35;;;6.40;;
29686;SDS011;16599;47.078;15.536;2023-01-15T15:26:42;19.25;;;6.18;;
29686;SDS011;16599;47.078;15.536;2023-01-15T15:29:04;12.85;;;6.15;;
29686;SDS011;16599;47.078;15.536;2023-01-15T15:34:16;13.50;;;6.18;;
29686;SDS011;16599;47.078;15.536;2023-01-15T15:36:52;17.48;;;6.68;;
29686;SDS011;16599;47.078;15.536;2023-01-15T15:39:25;16.83;;;6.03;;
29686;SDS011;16599;47.078;15.536;2023-01-15T15:41:57;11.93;;;6.35;;
29686;SDS011;16599;47.078;15.536;2023-01-15T15:44:54;82.55;;;33.47;;
29686;SDS011;16599;47.078;15.536;2023-01-15T15:47:43;49.63;;;22.90;;
29686;SDS011;16599;47.078;15.536;2023-01-15T15:50:29;50.65;;;22.20;;
29686;SDS011;16599;47.078;15.536;2023-01-15T15:52:58;52.63;;;23.63;;
29686;SDS011;16599;47.078;15.536;2023-01-15T15:55:34;54.53;;;28.63;;
29686;SDS011;16599;47.078;15.536;2023-01-15T15:58:03;44.15;;;21.40;;
29686;SDS011;16599;47.078;15.536;2023-01-15T16:00:33;43.42;;;20.15;;
29686;SDS011;16599;47.078;15.536;2023-01-15T16:03:07;31.52;;;15.27;;
29686;SDS011;16599;47.078;15.536;2023-01-15T16:08:30;38.20;;;18.50;;
29686;SDS011;16599;47.078;15.536;2023-01-15T16:11:01;26.27;;;13.02;;
29686;SDS011;16599;47.078;15.536;2023-01-15T16:13:33;27.75;;;13.63;;
29686;SDS011;16599;47.078;15.536;2023-01-15T16:18:47;19.33;;;9.52;;
29686;SDS011;16599;47.078;15.536;2023-01-15T16:21:17;14.68;;;7.35;;
29686;SDS011;16599;47.078;15.536;2023-01-15T16:24:00;10.30;;;6.10;;
29686;SDS011;16599;47.078;15.536;2023-01-15T16:29:04;13.27;;;6.03;;
29686;SDS011;16599;47.078;15.536;2023-01-15T16:31:41;17.20;;;6.93;;
29686;SDS011;16599;47.078;15.536;2023-01-15T16:34:10;13.90;;;6.63;;
29686;SDS011;16599;47.078;15.536;2023-01-15T16:36:43;12.40;;;6.57;;
29686;SDS011;16599;47.078;15.536;2023-01-15T16:39:16;12.98;;;5.65;;
29686;SDS011;16599;47.078;15.536;2023-01-15T16:41:51;12.82;;;6.28;;
29686;SDS011;16599;47.078;15.536;2023-01-15T16:47:29;14.23;;;6.90;;
29686;SDS011;16599;47.078;15.536;2023-01-15T16:52:48;11.57;;;6.35;;
29686;SDS011;16599;47.078;15.536;2023-01-15T16:55:59;13.35;;;5.85;;
29686;SDS011;16599;47.078;15.536;2023-01-15T17:00:38;10.32;;;5.82;;
29686;SDS011;16599;47.078;15.536;2023-01-15T17:03:21;10.73;;;5.68;;
29686;SDS011;16599;47.078;15.536;2023-01-15T17:06:10;12.38;;;5.32;;
29686;SDS011;16599;47.078;15.536;2023-01-15T17:08:38;14.00;;;6.78;;
29686;SDS011;16599;47.078;15.536;2023-01-15T17:11:19;16.38;;;6.65;;
29686;SDS011;16599;47.078;15.536;2023-01-15T17:14:05;12.02;;;6.20;;
29686;SDS011;16599;47.078;15.536;2023-01-15T17:17:35;13.70;;;6.63;;
29686;SDS011;16599;47.078;15.536;2023-01-15T17:19:50;15.52;;;6.80;;
29686;SDS011;16599;47.078;15.536;2023-01-15T17:22:21;13.52;;;7.00;;
29686;SDS011;16599;47.078;15.536;2023-01-15T17:24:52;10.70;;;6.15;;
29686;SDS011;16599;47.078;15.536;2023-01-15T17:27:20;12.13;;;6.60;;
29686;SDS011;16599;47.078;15.536;2023-01-15T17:29:46;16.88;;;13.45;;
29686;SDS011;16599;47.078;15.536;2023-01-15T17:32:19;12.68;;;6.50;;
29686;SDS011;16599;47.078;15.536;2023-01-15T17:34:51;17.40;;;7.22;;
29686;SDS011;16599;47.078;15.536;2023-01-15T17:37:18;13.65;;;6.68;;